sensor_id;sensor_type;location;lat;lon;timestamp;temperature;humidity
44477;DHT22;30180;44.788;10.366;2023-09-19T00:00:38;25.10;66.30
44477;DHT22;30180;44.788;10.366;2023-09-19T00:03:09;25.10;66.30
44477;DHT22;30180;44.788;10.366;2023-09-19T00:05:39;25.00;66.20
44477;DHT22;30180;44.788;10.366;2023-09-19T00:08:13;25.10;66.30
44477;DHT22;30180;44.788;10.366;2023-09-19T00:10:43;25.10;66.30
44477;DHT22;30180;44.788;10.366;2023-09-19T00:13:12;25.00;66.20
44477;DHT22;30180;44.788;10.366;2023-09-19T00:15:44;25.10;66.30
44477;DHT22;30180;44.788;10.366;2023-09-19T00:18:17;25.10;66.30
44477;DHT22;30180;44.788;10.366;2023-09-19T00:20:49;25.10;66.30
44477;DHT22;30180;44.788;10.366;2023-09-19T00:23:19;25.00;66.20
44477;DHT22;30180;44.788;10.366;2023-09-19T00:25:50;25.10;66.30
44477;DHT22;30180;44.788;10.366;2023-09-19T00:28:18;25.10;66.30
44477;DHT22;30180;44.788;10.366;2023-09-19T00:30:48;25.10;66.30
44477;DHT22;30180;44.788;10.366;2023-09-19T00:33:18;25.10;66.30
44477;DHT22;30180;44.788;10.366;2023-09-19T00:35:47;25.10;66.30
44477;DHT22;30180;44.788;10.366;2023-09-19T00:38:16;25.10;66.30
44477;DHT22;30180;44.788;10.366;2023-09-19T00:40:46;25.00;66.20
44477;DHT22;30180;44.788;10.366;2023-09-19T00:43:16;25.00;66.20
44477;DHT22;30180;44.788;10.366;2023-09-19T00:45:48;25.00;66.20
44477;DHT22;30180;44.788;10.366;2023-09-19T00:48:17;25.00;66.20
44477;DHT22;30180;44.788;10.366;2023-09-19T00:50:47;25.10;66.30
44477;DHT22;30180;44.788;10.366;2023-09-19T00:53:20;25.00;66.20
44477;DHT22;30180;44.788;10.366;2023-09-19T00:55:50;25.00;66.20
44477;DHT22;30180;44.788;10.366;2023-09-19T00:58:20;25.10;66.30
44477;DHT22;30180;44.788;10.366;2023-09-19T01:00:49;25.10;66.30
44477;DHT22;30180;44.788;10.366;2023-09-19T01:03:18;25.00;66.20
44477;DHT22;30180;44.788;10.366;2023-09-19T01:05:47;25.00;66.20
44477;DHT22;30180;44.788;10.366;2023-09-19T01:08:16;25.00;66.20
44477;DHT22;30180;44.788;10.366;2023-09-19T01:10:51;25.10;66.30
44477;DHT22;30180;44.788;10.366;2023-09-19T01:13:27;25.00;66.20
44477;DHT22;30180;44.788;10.366;2023-09-19T01:16:03;25.00;66.20
44477;DHT22;30180;44.788;10.366;2023-09-19T01:18:43;25.00;66.20
44477;DHT22;30180;44.788;10.366;2023-09-19T01:21:20;25.00;66.20
44477;DHT22;30180;44.788;10.366;2023-09-19T01:24:16;25.10;66.20
44477;DHT22;30180;44.788;10.366;2023-09-19T01:27:12;25.00;66.20
44477;DHT22;30180;44.788;10.366;2023-09-19T01:29:49;25.00;66.20
44477;DHT22;30180;44.788;10.366;2023-09-19T01:32:21;25.00;66.20
44477;DHT22;30180;44.788;10.366;2023-09-19T01:34:54;25.00;66.20
44477;DHT22;30180;44.788;10.366;2023-09-19T01:37:26;25.00;66.20
44477;DHT22;30180;44.788;10.366;2023-09-19T01:39:58;25.00;66.20
44477;DHT22;30180;44.788;10.366;2023-09-19T01:42:39;25.00;66.20
44477;DHT22;30180;44.788;10.366;2023-09-19T01:45:12;25.00;66.20
44477;DHT22;30180;44.788;10.366;2023-09-19T01:47:48;25.00;66.20
44477;DHT22;30180;44.788;10.366;2023-09-19T01:50:24;25.00;66.20
44477;DHT22;30180;44.788;10.366;2023-09-19T01:52:59;25.00;66.20
44477;DHT22;30180;44.788;10.366;2023-09-19T01:55:37;25.00;66.20
44477;DHT22;30180;44.788;10.366;2023-09-19T01:58:16;25.00;66.20
44477;DHT22;30180;44.788;10.366;2023-09-19T02:00:48;25.00;66.20
44477;DHT22;30180;44.788;10.366;2023-09-19T02:03:20;25.00;66.20
44477;DHT22;30180;44.788;10.366;2023-09-19T02:05:50;25.00;66.20
44477;DHT22;30180;44.788;10.366;2023-09-19T02:08:22;25.00;66.20
44477;DHT22;30180;44.788;10.366;2023-09-19T02:10:52;25.00;66.20
44477;DHT22;30180;44.788;10.366;2023-09-19T02:13:21;25.00;66.20
44477;DHT22;30180;44.788;10.366;2023-09-19T02:15:52;25.00;66.20
44477;DHT22;30180;44.788;10.366;2023-09-19T02:18:21;25.00;66.20
44477;DHT22;30180;44.788;10.366;2023-09-19T02:20:50;25.00;66.20
44477;DHT22;30180;44.788;10.366;2023-09-19T02:23:19;25.00;66.20
44477;DHT22;30180;44.788;10.366;2023-09-19T02:25:52;25.00;66.20
44477;DHT22;30180;44.788;10.366;2023-09-19T02:28:21;25.00;66.20
44477;DHT22;30180;44.788;10.366;2023-09-19T02:30:50;25.00;66.20
44477;DHT22;30180;44.788;10.366;2023-09-19T02:33:18;25.00;66.20
44477;DHT22;30180;44.788;10.366;2023-09-19T02:35:48;25.00;66.20
44477;DHT22;30180;44.788;10.366;2023-09-19T02:38:17;25.00;66.20
44477;DHT22;30180;44.788;10.366;2023-09-19T02:40:51;25.10;66.30
44477;DHT22;30180;44.788;10.366;2023-09-19T02:43:22;25.00;66.20
44477;DHT22;30180;44.788;10.366;2023-09-19T02:45:51;25.00;66.20
44477;DHT22;30180;44.788;10.366;2023-09-19T02:48:21;25.00;66.20
44477;DHT22;30180;44.788;10.366;2023-09-19T02:50:51;25.00;66.20
44477;DHT22;30180;44.788;10.366;2023-09-19T02:53:20;25.00;66.20
44477;DHT22;30180;44.788;10.366;2023-09-19T02:55:49;25.00;66.20
44477;DHT22;30180;44.788;10.366;2023-09-19T02:58:21;25.00;66.20
44477;DHT22;30180;44.788;10.366;2023-09-19T03:00:52;25.00;66.20
44477;DHT22;30180;44.788;10.366;2023-09-19T03:03:22;25.00;66.20
44477;DHT22;30180;44.788;10.366;2023-09-19T03:05:52;25.00;66.20
44477;DHT22;30180;44.788;10.366;2023-09-19T03:08:21;25.00;66.20
44477;DHT22;30180;44.788;10.366;2023-09-19T03:10:50;25.00;66.20
44477;DHT22;30180;44.788;10.366;2023-09-19T03:13:18;25.00;66.20
44477;DHT22;30180;44.788;10.366;2023-09-19T03:15:47;25.00;66.20
44477;DHT22;30180;44.788;10.366;2023-09-19T03:18:18;25.00;66.20
44477;DHT22;30180;44.788;10.366;2023-09-19T03:20:54;25.00;66.20
44477;DHT22;30180;44.788;10.366;2023-09-19T03:23:23;25.00;66.20
44477;DHT22;30180;44.788;10.366;2023-09-19T03:25:53;25.00;66.20
44477;DHT22;30180;44.788;10.366;2023-09-19T03:28:23;25.00;66.20
44477;DHT22;30180;44.788;10.366;2023-09-19T03:30:59;25.00;66.20
44477;DHT22;30180;44.788;10.366;2023-09-19T03:33:28;25.00;66.20
44477;DHT22;30180;44.788;10.366;2023-09-19T03:36:00;25.00;66.20
44477;DHT22;30180;44.788;10.366;2023-09-19T03:38:32;25.00;66.20
44477;DHT22;30180;44.788;10.366;2023-09-19T03:41:01;25.00;66.20
44477;DHT22;30180;44.788;10.366;2023-09-19T03:43:32;25.00;66.80
44477;DHT22;30180;44.788;10.366;2023-09-19T03:46:01;25.00;66.20
44477;DHT22;30180;44.788;10.366;2023-09-19T03:48:31;25.00;66.20
44477;DHT22;30180;44.788;10.366;2023-09-19T03:51:02;25.00;66.20
44477;DHT22;30180;44.788;10.366;2023-09-19T03:53:30;25.00;66.20
44477;DHT22;30180;44.788;10.366;2023-09-19T03:55:59;25.00;66.20
44477;DHT22;30180;44.788;10.366;2023-09-19T03:58:28;25.00;66.20
44477;DHT22;30180;44.788;10.366;2023-09-19T04:00:57;25.00;66.20
44477;DHT22;30180;44.788;10.366;2023-09-19T04:03:26;25.00;66.20
44477;DHT22;30180;44.788;10.366;2023-09-19T04:06:04;25.00;66.20
44477;DHT22;30180;44.788;10.366;2023-09-19T04:08:33;25.00;66.20
44477;DHT22;30180;44.788;10.366;2023-09-19T04:11:01;25.00;66.20
44477;DHT22;30180;44.788;10.366;2023-09-19T04:13:29;25.00;66.20
44477;DHT22;30180;44.788;10.366;2023-09-19T04:15:58;25.00;66.20
44477;DHT22;30180;44.788;10.366;2023-09-19T04:18:26;25.00;66.20
44477;DHT22;30180;44.788;10.366;2023-09-19T04:20:55;25.00;66.20
44477;DHT22;30180;44.788;10.366;2023-09-19T04:23:24;25.00;66.20
44477;DHT22;30180;44.788;10.366;2023-09-19T04:25:53;25.00;66.20
44477;DHT22;30180;44.788;10.366;2023-09-19T04:28:22;25.00;66.20
44477;DHT22;30180;44.788;10.366;2023-09-19T04:30:51;25.00;66.20
44477;DHT22;30180;44.788;10.366;2023-09-19T04:33:19;25.00;66.20
44477;DHT22;30180;44.788;10.366;2023-09-19T04:35:49;25.00;66.20
44477;DHT22;30180;44.788;10.366;2023-09-19T04:38:18;25.00;66.10
44477;DHT22;30180;44.788;10.366;2023-09-19T04:40:48;25.00;66.10
44477;DHT22;30180;44.788;10.366;2023-09-19T04:43:16;25.00;66.10
44477;DHT22;30180;44.788;10.366;2023-09-19T04:45:45;25.00;66.20
44477;DHT22;30180;44.788;10.366;2023-09-19T04:48:13;25.00;66.10
44477;DHT22;30180;44.788;10.366;2023-09-19T04:50:43;25.00;66.10
44477;DHT22;30180;44.788;10.366;2023-09-19T04:53:11;25.00;66.10
44477;DHT22;30180;44.788;10.366;2023-09-19T04:55:40;25.00;66.10
44477;DHT22;30180;44.788;10.366;2023-09-19T04:58:10;25.00;66.20
44477;DHT22;30180;44.788;10.366;2023-09-19T05:00:38;25.00;66.10
44477;DHT22;30180;44.788;10.366;2023-09-19T05:03:07;25.00;66.10
44477;DHT22;30180;44.788;10.366;2023-09-19T05:05:35;25.00;66.20
44477;DHT22;30180;44.788;10.366;2023-09-19T05:08:05;25.00;66.20
44477;DHT22;30180;44.788;10.366;2023-09-19T05:10:36;25.00;66.10
44477;DHT22;30180;44.788;10.366;2023-09-19T05:13:05;25.00;66.10
44477;DHT22;30180;44.788;10.366;2023-09-19T05:15:36;25.00;66.20
44477;DHT22;30180;44.788;10.366;2023-09-19T05:18:04;25.00;66.20
44477;DHT22;30180;44.788;10.366;2023-09-19T05:20:34;25.00;66.10
44477;DHT22;30180;44.788;10.366;2023-09-19T05:23:06;25.00;66.20
44477;DHT22;30180;44.788;10.366;2023-09-19T05:25:40;25.00;66.10
44477;DHT22;30180;44.788;10.366;2023-09-19T05:28:10;25.00;66.10
44477;DHT22;30180;44.788;10.366;2023-09-19T05:30:41;25.00;66.10
44477;DHT22;30180;44.788;10.366;2023-09-19T05:33:14;25.00;66.30
44477;DHT22;30180;44.788;10.366;2023-09-19T05:35:43;24.90;66.10
44477;DHT22;30180;44.788;10.366;2023-09-19T05:38:14;24.90;66.20
44477;DHT22;30180;44.788;10.366;2023-09-19T05:40:46;25.00;66.10
44477;DHT22;30180;44.788;10.366;2023-09-19T05:43:14;24.90;66.10
44477;DHT22;30180;44.788;10.366;2023-09-19T05:45:44;25.00;66.10
44477;DHT22;30180;44.788;10.366;2023-09-19T05:48:14;24.90;66.10
44477;DHT22;30180;44.788;10.366;2023-09-19T05:50:44;24.90;66.00
44477;DHT22;30180;44.788;10.366;2023-09-19T05:53:14;25.00;66.10
44477;DHT22;30180;44.788;10.366;2023-09-19T05:55:43;25.00;66.20
44477;DHT22;30180;44.788;10.366;2023-09-19T05:58:12;25.00;66.20
44477;DHT22;30180;44.788;10.366;2023-09-19T06:00:41;25.00;66.10
44477;DHT22;30180;44.788;10.366;2023-09-19T06:03:13;25.00;66.10
44477;DHT22;30180;44.788;10.366;2023-09-19T06:05:42;25.10;66.10
44477;DHT22;30180;44.788;10.366;2023-09-19T06:08:10;25.10;66.10
44477;DHT22;30180;44.788;10.366;2023-09-19T06:10:39;25.10;66.10
44477;DHT22;30180;44.788;10.366;2023-09-19T06:13:07;25.20;66.10
44477;DHT22;30180;44.788;10.366;2023-09-19T06:15:37;25.20;66.10
44477;DHT22;30180;44.788;10.366;2023-09-19T06:18:10;25.20;66.00
44477;DHT22;30180;44.788;10.366;2023-09-19T06:20:43;25.30;66.00
44477;DHT22;30180;44.788;10.366;2023-09-19T06:23:12;25.30;66.00
44477;DHT22;30180;44.788;10.366;2023-09-19T06:25:41;25.30;66.00
44477;DHT22;30180;44.788;10.366;2023-09-19T06:28:11;25.30;66.10
44477;DHT22;30180;44.788;10.366;2023-09-19T06:30:40;25.30;66.00
44477;DHT22;30180;44.788;10.366;2023-09-19T06:33:09;25.30;66.10
44477;DHT22;30180;44.788;10.366;2023-09-19T06:35:44;25.30;66.10
44477;DHT22;30180;44.788;10.366;2023-09-19T06:38:14;25.30;66.10
44477;DHT22;30180;44.788;10.366;2023-09-19T06:40:42;25.40;66.10
44477;DHT22;30180;44.788;10.366;2023-09-19T06:43:11;25.40;66.10
44477;DHT22;30180;44.788;10.366;2023-09-19T06:45:40;25.40;66.10
44477;DHT22;30180;44.788;10.366;2023-09-19T06:48:09;25.40;66.10
44477;DHT22;30180;44.788;10.366;2023-09-19T06:50:39;25.40;66.10
44477;DHT22;30180;44.788;10.366;2023-09-19T06:53:10;25.40;66.10
44477;DHT22;30180;44.788;10.366;2023-09-19T06:55:38;25.40;66.20
44477;DHT22;30180;44.788;10.366;2023-09-19T06:58:07;25.40;66.10
44477;DHT22;30180;44.788;10.366;2023-09-19T07:00:35;25.40;66.10
44477;DHT22;30180;44.788;10.366;2023-09-19T07:03:06;25.40;66.20
44477;DHT22;30180;44.788;10.366;2023-09-19T07:05:39;25.40;66.20
44477;DHT22;30180;44.788;10.366;2023-09-19T07:08:10;25.40;66.20
44477;DHT22;30180;44.788;10.366;2023-09-19T07:10:40;25.40;66.20
44477;DHT22;30180;44.788;10.366;2023-09-19T07:13:16;25.40;66.20
44477;DHT22;30180;44.788;10.366;2023-09-19T07:15:45;25.40;66.20
44477;DHT22;30180;44.788;10.366;2023-09-19T07:18:17;25.40;66.20
44477;DHT22;30180;44.788;10.366;2023-09-19T07:20:47;25.40;66.30
44477;DHT22;30180;44.788;10.366;2023-09-19T07:23:19;25.40;66.30
44477;DHT22;30180;44.788;10.366;2023-09-19T07:25:49;25.40;66.30
44477;DHT22;30180;44.788;10.366;2023-09-19T07:28:18;25.40;66.40
44477;DHT22;30180;44.788;10.366;2023-09-19T07:30:47;25.40;66.40
44477;DHT22;30180;44.788;10.366;2023-09-19T07:33:15;25.40;66.40
44477;DHT22;30180;44.788;10.366;2023-09-19T07:35:45;25.40;66.40
44477;DHT22;30180;44.788;10.366;2023-09-19T07:38:15;25.40;66.40
44477;DHT22;30180;44.788;10.366;2023-09-19T07:40:45;25.40;66.50
44477;DHT22;30180;44.788;10.366;2023-09-19T07:43:13;25.40;66.40
44477;DHT22;30180;44.788;10.366;2023-09-19T07:45:42;25.40;66.40
44477;DHT22;30180;44.788;10.366;2023-09-19T07:48:10;25.50;66.50
44477;DHT22;30180;44.788;10.366;2023-09-19T07:50:41;25.50;66.50
44477;DHT22;30180;44.788;10.366;2023-09-19T07:53:12;25.50;66.60
44477;DHT22;30180;44.788;10.366;2023-09-19T07:55:41;25.50;66.50
44477;DHT22;30180;44.788;10.366;2023-09-19T07:58:11;25.50;66.50
44477;DHT22;30180;44.788;10.366;2023-09-19T08:00:40;25.60;66.60
44477;DHT22;30180;44.788;10.366;2023-09-19T08:03:08;25.60;66.50
44477;DHT22;30180;44.788;10.366;2023-09-19T08:05:44;25.60;66.50
44477;DHT22;30180;44.788;10.366;2023-09-19T08:08:13;25.60;66.50
44477;DHT22;30180;44.788;10.366;2023-09-19T08:10:42;25.60;66.50
44477;DHT22;30180;44.788;10.366;2023-09-19T08:13:14;25.70;66.50
44477;DHT22;30180;44.788;10.366;2023-09-19T08:15:44;25.70;66.60
44477;DHT22;30180;44.788;10.366;2023-09-19T08:18:13;25.70;66.60
44477;DHT22;30180;44.788;10.366;2023-09-19T08:20:43;25.70;66.50
44477;DHT22;30180;44.788;10.366;2023-09-19T08:23:13;25.70;66.50
44477;DHT22;30180;44.788;10.366;2023-09-19T08:25:41;25.70;66.60
44477;DHT22;30180;44.788;10.366;2023-09-19T08:28:11;25.70;66.60
44477;DHT22;30180;44.788;10.366;2023-09-19T08:30:46;25.70;66.60
44477;DHT22;30180;44.788;10.366;2023-09-19T08:33:14;25.70;66.60
44477;DHT22;30180;44.788;10.366;2023-09-19T08:35:43;25.70;66.60
44477;DHT22;30180;44.788;10.366;2023-09-19T08:38:12;25.70;66.60
44477;DHT22;30180;44.788;10.366;2023-09-19T08:40:41;25.70;66.60
44477;DHT22;30180;44.788;10.366;2023-09-19T08:43:10;25.80;66.60
44477;DHT22;30180;44.788;10.366;2023-09-19T08:45:39;25.70;66.60
44477;DHT22;30180;44.788;10.366;2023-09-19T08:48:24;25.70;66.60
44477;DHT22;30180;44.788;10.366;2023-09-19T08:50:57;25.70;66.60
44477;DHT22;30180;44.788;10.366;2023-09-19T08:53:35;25.70;66.50
44477;DHT22;30180;44.788;10.366;2023-09-19T08:56:10;25.70;66.50
44477;DHT22;30180;44.788;10.366;2023-09-19T08:58:45;25.70;66.60
44477;DHT22;30180;44.788;10.366;2023-09-19T09:01:17;25.70;66.60
44477;DHT22;30180;44.788;10.366;2023-09-19T09:03:54;25.70;66.60
44477;DHT22;30180;44.788;10.366;2023-09-19T09:06:24;25.70;66.60
44477;DHT22;30180;44.788;10.366;2023-09-19T09:08:55;25.70;66.60
44477;DHT22;30180;44.788;10.366;2023-09-19T09:11:23;25.70;66.60
44477;DHT22;30180;44.788;10.366;2023-09-19T09:13:55;25.70;66.70
44477;DHT22;30180;44.788;10.366;2023-09-19T09:16:24;25.70;66.70
44477;DHT22;30180;44.788;10.366;2023-09-19T09:18:55;25.70;66.70
44477;DHT22;30180;44.788;10.366;2023-09-19T09:21:25;25.70;66.60
44477;DHT22;30180;44.788;10.366;2023-09-19T09:23:54;25.70;66.70
44477;DHT22;30180;44.788;10.366;2023-09-19T09:26:43;25.70;66.70
44477;DHT22;30180;44.788;10.366;2023-09-19T09:29:11;25.70;66.70
44477;DHT22;30180;44.788;10.366;2023-09-19T09:31:45;25.70;66.70
44477;DHT22;30180;44.788;10.366;2023-09-19T09:34:16;25.70;66.70
44477;DHT22;30180;44.788;10.366;2023-09-19T09:36:48;25.70;66.70
44477;DHT22;30180;44.788;10.366;2023-09-19T09:39:30;25.80;66.80
44477;DHT22;30180;44.788;10.366;2023-09-19T09:41:59;25.80;66.80
44477;DHT22;30180;44.788;10.366;2023-09-19T09:44:27;25.80;66.80
44477;DHT22;30180;44.788;10.366;2023-09-19T09:46:59;25.80;66.80
44477;DHT22;30180;44.788;10.366;2023-09-19T09:49:51;25.80;66.80
44477;DHT22;30180;44.788;10.366;2023-09-19T09:52:45;25.80;66.80
44477;DHT22;30180;44.788;10.366;2023-09-19T09:55:14;25.80;66.80
44477;DHT22;30180;44.788;10.366;2023-09-19T09:57:42;25.80;66.70
44477;DHT22;30180;44.788;10.366;2023-09-19T10:00:12;25.90;66.80
44477;DHT22;30180;44.788;10.366;2023-09-19T10:02:47;25.90;66.70
44477;DHT22;30180;44.788;10.366;2023-09-19T10:05:18;25.90;66.70
44477;DHT22;30180;44.788;10.366;2023-09-19T10:08:10;25.90;66.70
44477;DHT22;30180;44.788;10.366;2023-09-19T10:10:40;25.90;66.70
44477;DHT22;30180;44.788;10.366;2023-09-19T10:13:21;25.90;66.80
44477;DHT22;30180;44.788;10.366;2023-09-19T10:15:51;25.90;66.70
44477;DHT22;30180;44.788;10.366;2023-09-19T10:18:24;25.90;66.80
44477;DHT22;30180;44.788;10.366;2023-09-19T10:20:56;25.90;67.40
44477;DHT22;30180;44.788;10.366;2023-09-19T10:23:25;25.90;66.70
44477;DHT22;30180;44.788;10.366;2023-09-19T10:25:59;25.90;66.70
44477;DHT22;30180;44.788;10.366;2023-09-19T10:28:30;25.90;66.70
44477;DHT22;30180;44.788;10.366;2023-09-19T10:31:00;25.90;66.70
44477;DHT22;30180;44.788;10.366;2023-09-19T10:33:35;25.90;66.70
44477;DHT22;30180;44.788;10.366;2023-09-19T10:36:09;25.90;66.70
44477;DHT22;30180;44.788;10.366;2023-09-19T10:38:39;25.90;66.70
44477;DHT22;30180;44.788;10.366;2023-09-19T10:41:14;25.90;66.70
44477;DHT22;30180;44.788;10.366;2023-09-19T10:43:46;25.90;66.70
44477;DHT22;30180;44.788;10.366;2023-09-19T10:46:16;25.90;66.60
44477;DHT22;30180;44.788;10.366;2023-09-19T10:48:44;25.90;66.60
44477;DHT22;30180;44.788;10.366;2023-09-19T10:51:20;25.90;66.60
44477;DHT22;30180;44.788;10.366;2023-09-19T10:53:55;25.90;66.60
44477;DHT22;30180;44.788;10.366;2023-09-19T10:56:30;25.90;66.60
44477;DHT22;30180;44.788;10.366;2023-09-19T10:59:08;25.90;66.60
44477;DHT22;30180;44.788;10.366;2023-09-19T11:01:42;25.90;66.60
44477;DHT22;30180;44.788;10.366;2023-09-19T11:04:24;25.90;66.60
44477;DHT22;30180;44.788;10.366;2023-09-19T11:07:04;25.90;66.60
44477;DHT22;30180;44.788;10.366;2023-09-19T11:09:54;25.90;66.60
44477;DHT22;30180;44.788;10.366;2023-09-19T11:12:49;25.90;66.60
44477;DHT22;30180;44.788;10.366;2023-09-19T11:18:53;25.90;66.60
44477;DHT22;30180;44.788;10.366;2023-09-19T11:21:52;25.90;66.60
44477;DHT22;30180;44.788;10.366;2023-09-19T11:24:34;25.90;66.60
44477;DHT22;30180;44.788;10.366;2023-09-19T11:27:13;25.90;66.50
44477;DHT22;30180;44.788;10.366;2023-09-19T11:29:44;25.90;66.50
44477;DHT22;30180;44.788;10.366;2023-09-19T11:32:13;25.90;66.50
44477;DHT22;30180;44.788;10.366;2023-09-19T11:34:48;25.90;66.50
44477;DHT22;30180;44.788;10.366;2023-09-19T11:43:53;25.80;66.50
44477;DHT22;30180;44.788;10.366;2023-09-19T11:46:54;25.80;66.50
44477;DHT22;30180;44.788;10.366;2023-09-19T11:49:26;25.80;66.50
44477;DHT22;30180;44.788;10.366;2023-09-19T11:52:00;25.80;66.50
44477;DHT22;30180;44.788;10.366;2023-09-19T11:54:33;25.80;66.50
44477;DHT22;30180;44.788;10.366;2023-09-19T11:57:03;25.80;66.50
44477;DHT22;30180;44.788;10.366;2023-09-19T11:59:32;25.80;66.50
44477;DHT22;30180;44.788;10.366;2023-09-19T12:02:03;25.80;66.50
44477;DHT22;30180;44.788;10.366;2023-09-19T12:04:36;25.80;67.20
44477;DHT22;30180;44.788;10.366;2023-09-19T12:07:08;25.70;66.60
44477;DHT22;30180;44.788;10.366;2023-09-19T12:09:44;25.70;66.60
44477;DHT22;30180;44.788;10.366;2023-09-19T12:12:22;25.70;66.60
44477;DHT22;30180;44.788;10.366;2023-09-19T12:14:54;25.80;66.60
44477;DHT22;30180;44.788;10.366;2023-09-19T12:17:35;25.80;66.60
44477;DHT22;30180;44.788;10.366;2023-09-19T12:20:05;25.80;66.60
44477;DHT22;30180;44.788;10.366;2023-09-19T12:22:40;25.80;66.60
44477;DHT22;30180;44.788;10.366;2023-09-19T12:25:11;25.80;66.70
44477;DHT22;30180;44.788;10.366;2023-09-19T12:27:45;25.90;66.70
44477;DHT22;30180;44.788;10.366;2023-09-19T12:30:15;25.80;66.60
44477;DHT22;30180;44.788;10.366;2023-09-19T12:32:48;25.90;66.70
44477;DHT22;30180;44.788;10.366;2023-09-19T12:35:27;25.90;66.60
44477;DHT22;30180;44.788;10.366;2023-09-19T12:37:57;25.90;66.60
44477;DHT22;30180;44.788;10.366;2023-09-19T12:40:26;25.90;66.60
44477;DHT22;30180;44.788;10.366;2023-09-19T12:42:58;25.90;66.60
44477;DHT22;30180;44.788;10.366;2023-09-19T12:45:30;25.90;66.60
44477;DHT22;30180;44.788;10.366;2023-09-19T12:48:18;25.90;66.60
44477;DHT22;30180;44.788;10.366;2023-09-19T12:51:05;25.90;66.60
44477;DHT22;30180;44.788;10.366;2023-09-19T12:53:36;25.90;66.60
44477;DHT22;30180;44.788;10.366;2023-09-19T12:56:09;25.90;66.60
44477;DHT22;30180;44.788;10.366;2023-09-19T12:58:51;25.90;66.60
44477;DHT22;30180;44.788;10.366;2023-09-19T13:01:21;25.90;66.60
44477;DHT22;30180;44.788;10.366;2023-09-19T13:04:21;25.90;66.60
44477;DHT22;30180;44.788;10.366;2023-09-19T13:06:53;25.90;66.60
44477;DHT22;30180;44.788;10.366;2023-09-19T13:09:22;25.90;66.60
44477;DHT22;30180;44.788;10.366;2023-09-19T13:11:58;25.90;66.60
44477;DHT22;30180;44.788;10.366;2023-09-19T13:14:30;25.90;66.50
44477;DHT22;30180;44.788;10.366;2023-09-19T13:17:03;25.90;66.40
44477;DHT22;30180;44.788;10.366;2023-09-19T13:19:38;25.90;66.40
44477;DHT22;30180;44.788;10.366;2023-09-19T13:22:39;25.90;66.50
44477;DHT22;30180;44.788;10.366;2023-09-19T13:25:09;25.90;66.50
44477;DHT22;30180;44.788;10.366;2023-09-19T13:27:42;25.90;66.50
44477;DHT22;30180;44.788;10.366;2023-09-19T13:30:13;25.90;66.50
44477;DHT22;30180;44.788;10.366;2023-09-19T13:32:41;25.90;66.50
44477;DHT22;30180;44.788;10.366;2023-09-19T13:35:10;25.90;66.40
44477;DHT22;30180;44.788;10.366;2023-09-19T13:37:41;25.90;66.50
44477;DHT22;30180;44.788;10.366;2023-09-19T13:40:11;25.90;66.50
44477;DHT22;30180;44.788;10.366;2023-09-19T13:42:41;25.90;66.50
44477;DHT22;30180;44.788;10.366;2023-09-19T13:45:09;25.90;66.60
44477;DHT22;30180;44.788;10.366;2023-09-19T13:47:41;25.90;66.60
44477;DHT22;30180;44.788;10.366;2023-09-19T13:50:10;25.90;66.50
44477;DHT22;30180;44.788;10.366;2023-09-19T13:52:39;25.90;66.50
44477;DHT22;30180;44.788;10.366;2023-09-19T13:55:08;25.90;66.50
44477;DHT22;30180;44.788;10.366;2023-09-19T13:57:36;25.90;67.10
44477;DHT22;30180;44.788;10.366;2023-09-19T14:00:06;25.90;66.40
44477;DHT22;30180;44.788;10.366;2023-09-19T14:02:37;25.90;66.50
44477;DHT22;30180;44.788;10.366;2023-09-19T14:05:08;25.90;66.40
44477;DHT22;30180;44.788;10.366;2023-09-19T14:07:38;25.90;66.40
44477;DHT22;30180;44.788;10.366;2023-09-19T14:10:10;25.90;66.40
44477;DHT22;30180;44.788;10.366;2023-09-19T14:12:39;25.90;66.40
44477;DHT22;30180;44.788;10.366;2023-09-19T14:15:08;25.90;66.30
44477;DHT22;30180;44.788;10.366;2023-09-19T14:17:37;25.90;66.30
44477;DHT22;30180;44.788;10.366;2023-09-19T14:20:08;25.90;66.40
44477;DHT22;30180;44.788;10.366;2023-09-19T14:22:37;26.00;66.50
44477;DHT22;30180;44.788;10.366;2023-09-19T14:25:07;26.00;66.50
44477;DHT22;30180;44.788;10.366;2023-09-19T14:27:36;26.00;66.40
44477;DHT22;30180;44.788;10.366;2023-09-19T14:30:06;25.90;66.30
44477;DHT22;30180;44.788;10.366;2023-09-19T14:32:34;26.00;66.40
44477;DHT22;30180;44.788;10.366;2023-09-19T14:35:03;25.90;66.40
44477;DHT22;30180;44.788;10.366;2023-09-19T14:37:33;26.00;66.40
44477;DHT22;30180;44.788;10.366;2023-09-19T14:40:02;26.00;66.40
44477;DHT22;30180;44.788;10.366;2023-09-19T14:42:39;26.00;66.40
44477;DHT22;30180;44.788;10.366;2023-09-19T14:45:10;26.00;66.30
44477;DHT22;30180;44.788;10.366;2023-09-19T14:47:41;26.00;66.30
44477;DHT22;30180;44.788;10.366;2023-09-19T14:50:10;26.00;66.30
44477;DHT22;30180;44.788;10.366;2023-09-19T14:52:41;25.90;66.20
44477;DHT22;30180;44.788;10.366;2023-09-19T14:55:09;25.90;66.20
44477;DHT22;30180;44.788;10.366;2023-09-19T14:57:41;25.90;66.30
44477;DHT22;30180;44.788;10.366;2023-09-19T15:00:12;25.90;66.30
44477;DHT22;30180;44.788;10.366;2023-09-19T15:02:41;25.90;66.30
44477;DHT22;30180;44.788;10.366;2023-09-19T15:05:13;25.90;66.30
44477;DHT22;30180;44.788;10.366;2023-09-19T15:07:47;25.90;66.30
44477;DHT22;30180;44.788;10.366;2023-09-19T15:10:16;25.90;66.30
44477;DHT22;30180;44.788;10.366;2023-09-19T15:12:45;25.90;66.30
44477;DHT22;30180;44.788;10.366;2023-09-19T15:15:14;25.90;66.30
44477;DHT22;30180;44.788;10.366;2023-09-19T15:17:43;25.80;66.20
44477;DHT22;30180;44.788;10.366;2023-09-19T15:20:11;25.80;66.30
44477;DHT22;30180;44.788;10.366;2023-09-19T15:22:41;25.80;66.30
44477;DHT22;30180;44.788;10.366;2023-09-19T15:25:11;25.80;66.30
44477;DHT22;30180;44.788;10.366;2023-09-19T15:27:39;25.70;66.30
44477;DHT22;30180;44.788;10.366;2023-09-19T15:30:09;25.70;66.30
44477;DHT22;30180;44.788;10.366;2023-09-19T15:32:38;25.70;66.30
44477;DHT22;30180;44.788;10.366;2023-09-19T15:35:07;25.70;66.40
44477;DHT22;30180;44.788;10.366;2023-09-19T15:37:40;25.70;66.40
44477;DHT22;30180;44.788;10.366;2023-09-19T15:40:10;25.70;66.40
44477;DHT22;30180;44.788;10.366;2023-09-19T15:42:40;25.70;66.50
44477;DHT22;30180;44.788;10.366;2023-09-19T15:45:09;25.70;66.40
44477;DHT22;30180;44.788;10.366;2023-09-19T15:47:38;25.70;66.40
44477;DHT22;30180;44.788;10.366;2023-09-19T15:50:07;25.70;66.40
44477;DHT22;30180;44.788;10.366;2023-09-19T15:52:36;25.60;66.30